createdAt,value
2023-03-15T00:01:10.026Z,2.13
2023-03-15T00:03:40.068Z,2.35
2023-03-15T00:06:08.664Z,1.73
2023-03-15T00:08:37.097Z,2.38
2023-03-15T00:11:05.690Z,1.60
2023-03-15T00:13:34.308Z,2.53
2023-03-15T00:16:04.164Z,2.63
2023-03-15T00:18:33.907Z,1.73
2023-03-15T00:21:03.211Z,3.65
2023-03-15T00:23:32.103Z,2.40
2023-03-15T00:26:00.341Z,1.52
2023-03-15T00:28:28.666Z,1.33
2023-03-15T00:31:07.450Z,2.83
2023-03-15T00:33:38.704Z,3.00
2023-03-15T00:36:09.481Z,1.48
2023-03-15T00:38:39.551Z,2.45
2023-03-15T00:41:08.861Z,1.45
2023-03-15T00:43:37.419Z,1.88
2023-03-15T00:46:06.609Z,1.30
2023-03-15T00:48:35.782Z,1.30
2023-03-15T00:51:06.960Z,1.70
2023-03-15T00:53:38.627Z,1.15
2023-03-15T00:58:36.024Z,0.75
2023-03-15T01:01:07.939Z,1.27
2023-03-15T01:03:39.167Z,1.77
2023-03-15T01:06:10.572Z,2.75
2023-03-15T01:08:38.874Z,1.30
2023-03-15T01:11:08.901Z,1.15
2023-03-15T01:13:37.497Z,0.50
2023-03-15T01:16:07.216Z,0.77
2023-03-15T01:18:37.273Z,0.63
2023-03-15T01:21:09.563Z,1.50
2023-03-15T01:23:38.065Z,2.05
2023-03-15T01:26:15.455Z,1.10
2023-03-15T01:28:48.668Z,0.32
2023-03-15T01:31:22.951Z,0.88
2023-03-15T01:34:01.544Z,0.85
2023-03-15T01:36:42.650Z,0.93
2023-03-15T01:39:13.430Z,1.50
2023-03-15T01:41:49.824Z,0.63
2023-03-15T01:44:51.590Z,0.98
2023-03-15T01:47:34.235Z,0.80
2023-03-15T01:50:14.842Z,1.45
2023-03-15T01:52:56.261Z,0.80
2023-03-15T01:55:26.357Z,0.57
2023-03-15T01:58:12.060Z,0.85
2023-03-15T02:00:47.184Z,1.85
2023-03-15T02:03:36.017Z,0.85
2023-03-15T02:06:28.885Z,1.00
2023-03-15T02:09:09.100Z,0.40
2023-03-15T02:11:42.153Z,0.60
2023-03-15T02:14:19.503Z,0.73
2023-03-15T02:16:55.538Z,0.40
2023-03-15T02:19:42.405Z,0.40
2023-03-15T02:22:38.328Z,0.32
2023-03-15T02:25:35.306Z,0.88
2023-03-15T02:28:14.981Z,0.80
2023-03-15T02:30:51.727Z,0.40
2023-03-15T02:33:32.990Z,1.00
2023-03-15T02:36:22.334Z,0.88
2023-03-15T02:38:57.160Z,0.60
2023-03-15T02:41:43.918Z,0.75
2023-03-15T02:44:32.825Z,0.68
2023-03-15T02:47:16.970Z,0.90
2023-03-15T02:50:05.193Z,0.68
2023-03-15T02:52:42.957Z,0.80
2023-03-15T02:55:29.457Z,1.65
2023-03-15T02:58:04.882Z,1.20
2023-03-15T03:00:42.313Z,0.60
2023-03-15T03:03:14.789Z,0.50
2023-03-15T03:05:43.698Z,1.15
2023-03-15T03:08:16.719Z,0.52
2023-03-15T03:10:54.509Z,1.17
2023-03-15T03:13:26.771Z,0.60
2023-03-15T03:16:03.901Z,1.27
2023-03-15T03:18:52.525Z,1.25
2023-03-15T03:21:27.419Z,1.45
2023-03-15T03:24:01.450Z,3.40
2023-03-15T03:26:33.158Z,1.83
2023-03-15T03:29:17.053Z,1.92
2023-03-15T03:32:04.219Z,0.80
2023-03-15T03:34:48.526Z,1.40
2023-03-15T03:37:30.131Z,1.63
2023-03-15T03:40:22.900Z,1.48
2023-03-15T03:43:00.252Z,2.38
2023-03-15T03:45:41.024Z,2.22
2023-03-15T03:48:21.479Z,1.27
2023-03-15T03:50:58.116Z,2.55
2023-03-15T03:53:49.865Z,2.40
2023-03-15T03:56:32.953Z,2.53
2023-03-15T03:59:09.832Z,6.32
2023-03-15T04:02:00.853Z,4.40
2023-03-15T04:04:45.616Z,2.10
2023-03-15T04:07:24.742Z,3.53
2023-03-15T04:10:06.909Z,3.13
2023-03-15T04:12:37.954Z,2.13
2023-03-15T04:17:48.216Z,1.60
2023-03-15T04:20:26.326Z,2.22
2023-03-15T04:23:05.239Z,1.50
2023-03-15T04:25:55.466Z,1.77
2023-03-15T04:29:06.635Z,3.90
2023-03-15T04:32:06.859Z,2.25
2023-03-15T04:35:27.034Z,2.08
2023-03-15T04:38:29.737Z,1.77
2023-03-15T04:41:32.750Z,2.05
2023-03-15T04:44:35.455Z,1.20
2023-03-15T04:47:44.437Z,2.35
2023-03-15T04:50:37.330Z,2.30
2023-03-15T04:53:44.623Z,1.88
2023-03-15T04:56:39.739Z,3.58
2023-03-15T05:00:07.782Z,2.67
2023-03-15T05:03:04.723Z,1.42
2023-03-15T05:06:12.152Z,4.30
2023-03-15T05:09:26.542Z,1.90
2023-03-15T05:12:29.762Z,3.65
2023-03-15T05:15:28.849Z,3.00
2023-03-15T05:18:53.465Z,3.67
2023-03-15T05:22:57.842Z,4.40
2023-03-15T05:26:35.198Z,4.65
2023-03-15T05:29:51.580Z,3.58
2023-03-15T05:32:34.805Z,2.33
2023-03-15T05:36:03.101Z,2.30
2023-03-15T05:39:09.180Z,3.80
2023-03-15T05:42:13.068Z,4.93
2023-03-15T05:49:30.039Z,2.42
2023-03-15T05:53:07.166Z,3.15
2023-03-15T05:56:34.607Z,3.58
2023-03-15T06:00:17.031Z,5.72
2023-03-15T06:02:54.876Z,2.17
2023-03-15T06:06:33.570Z,3.25
2023-03-15T06:09:11.046Z,4.05
2023-03-15T06:11:45.872Z,5.80
2023-03-15T06:14:38.470Z,4.90
2023-03-15T06:18:32.680Z,3.92
2023-03-15T06:22:47.014Z,4.95
2023-03-15T06:31:04.024Z,4.65
2023-03-15T06:44:22.244Z,5.13
2023-03-15T06:46:55.706Z,2.92
2023-03-15T06:49:23.953Z,3.75
2023-03-15T06:51:52.634Z,4.80
2023-03-15T06:54:22.373Z,5.60
2023-03-15T06:56:51.115Z,4.85
2023-03-15T06:59:19.502Z,5.38
2023-03-15T07:01:48.184Z,4.68
2023-03-15T07:04:17.224Z,3.65
2023-03-15T07:06:45.831Z,4.25
2023-03-15T07:09:14.269Z,5.00
2023-03-15T07:11:43.973Z,7.00
2023-03-15T07:14:13.633Z,4.95
2023-03-15T07:16:42.004Z,8.05
2023-03-15T07:19:10.742Z,5.70
2023-03-15T07:21:39.112Z,7.43
2023-03-15T07:24:07.778Z,6.10
2023-03-15T07:26:36.210Z,8.20
2023-03-15T07:29:05.857Z,10.38
2023-03-15T07:31:34.102Z,11.77
2023-03-15T07:34:02.383Z,6.32
2023-03-15T07:36:32.299Z,6.03
2023-03-15T07:39:01.716Z,6.03
2023-03-15T07:41:30.041Z,6.63
2023-03-15T07:44:09.100Z,6.80
2023-03-15T07:46:38.523Z,7.57
2023-03-15T07:49:06.799Z,6.03
2023-03-15T07:51:35.026Z,7.13
2023-03-15T07:54:03.677Z,8.95
2023-03-15T07:56:31.952Z,8.35
2023-03-15T07:59:00.122Z,8.77
2023-03-15T08:01:29.849Z,5.22
2023-03-15T08:03:58.062Z,7.97
2023-03-15T08:06:26.306Z,7.32
2023-03-15T08:08:54.553Z,12.05
2023-03-15T08:11:22.890Z,5.90
2023-03-15T08:13:51.123Z,9.23
2023-03-15T08:16:19.540Z,7.55
2023-03-15T08:18:49.256Z,8.55
2023-03-15T08:21:17.522Z,6.15
2023-03-15T08:23:45.867Z,9.57
2023-03-15T08:26:14.080Z,8.80
2023-03-15T08:28:42.295Z,7.72
2023-03-15T08:31:13.881Z,9.10
2023-03-15T08:33:42.323Z,8.20
2023-03-15T08:36:12.237Z,7.75
2023-03-15T08:38:41.750Z,12.70
2023-03-15T08:41:09.982Z,9.10
2023-03-15T08:43:38.226Z,7.00
2023-03-15T08:46:06.888Z,7.70
2023-03-15T08:48:35.089Z,7.43
2023-03-15T08:51:04.556Z,8.48
2023-03-15T08:53:34.265Z,10.00
2023-03-15T08:56:02.839Z,6.70
2023-03-15T08:58:31.370Z,6.63
2023-03-15T09:00:59.683Z,8.40
2023-03-15T09:03:27.988Z,6.20
2023-03-15T09:05:58.558Z,7.07
2023-03-15T09:08:27.407Z,7.72
2023-03-15T09:10:58.032Z,7.28
2023-03-15T09:13:27.106Z,10.70
2023-03-15T09:15:56.232Z,11.43
2023-03-15T09:18:25.619Z,12.80
2023-03-15T09:20:53.936Z,9.50
2023-03-15T09:23:22.566Z,8.00
2023-03-15T09:25:50.803Z,9.32
2023-03-15T09:28:20.629Z,9.60
2023-03-15T09:30:49.353Z,8.32
2023-03-15T09:33:17.613Z,5.80
2023-03-15T09:35:45.953Z,7.88
2023-03-15T09:38:14.133Z,7.55
2023-03-15T09:40:46.118Z,6.60
2023-03-15T09:43:40.621Z,5.97
2023-03-15T09:46:24.347Z,9.77
2023-03-15T09:48:57.787Z,8.25
2023-03-15T09:51:36.423Z,7.55
2023-03-15T09:54:09.674Z,7.72
2023-03-15T09:56:41.221Z,8.18
2023-03-15T09:59:12.994Z,10.68
2023-03-15T10:01:43.104Z,7.93
2023-03-15T10:04:20.291Z,11.80
2023-03-15T10:06:54.200Z,13.02
2023-03-15T10:09:24.786Z,7.80
2023-03-15T10:12:04.318Z,6.88
2023-03-15T10:14:57.352Z,8.48
2023-03-15T10:17:36.392Z,10.15
2023-03-15T10:20:12.036Z,6.18
2023-03-15T10:22:48.393Z,6.85
2023-03-15T10:25:20.090Z,5.28
2023-03-15T10:27:51.919Z,6.57
2023-03-15T10:30:24.136Z,8.40
2023-03-15T10:32:57.336Z,5.25
2023-03-15T10:35:25.638Z,5.68
2023-03-15T10:37:53.938Z,7.57
2023-03-15T10:40:40.751Z,5.35
2023-03-15T10:43:17.945Z,5.05
2023-03-15T10:46:00.174Z,5.20
2023-03-15T10:48:29.502Z,4.60
2023-03-15T10:50:59.271Z,6.35
2023-03-15T10:53:27.725Z,7.75
2023-03-15T10:56:05.307Z,6.03
2023-03-15T10:58:42.816Z,9.10
2023-03-15T11:01:24.139Z,6.07
2023-03-15T11:04:04.327Z,5.70
2023-03-15T11:06:41.539Z,5.88
2023-03-15T11:09:11.858Z,2.85
2023-03-15T11:11:56.410Z,3.17
2023-03-15T11:14:24.985Z,6.30
2023-03-15T11:16:58.059Z,6.05
2023-03-15T11:19:29.310Z,4.68
2023-03-15T11:22:00.290Z,2.78
2023-03-15T11:24:30.697Z,3.55
2023-03-15T11:27:02.368Z,1.38
2023-03-15T11:29:33.338Z,3.55
2023-03-15T11:32:12.501Z,3.05
2023-03-15T11:34:45.747Z,3.17
2023-03-15T11:37:20.836Z,2.35
2023-03-15T11:40:05.122Z,3.40
2023-03-15T11:42:45.335Z,3.72
2023-03-15T11:45:19.620Z,3.50
2023-03-15T11:47:54.240Z,3.97
2023-03-15T11:50:23.224Z,3.83
2023-03-15T11:52:53.101Z,2.70
2023-03-15T11:55:25.288Z,2.85
2023-03-15T11:57:54.430Z,2.83
2023-03-15T12:00:51.502Z,2.67
2023-03-15T12:03:40.625Z,2.78
2023-03-15T12:06:48.136Z,2.47
2023-03-15T12:09:46.754Z,1.20
2023-03-15T12:12:38.007Z,2.63
2023-03-15T12:15:16.440Z,1.75
2023-03-15T12:17:46.991Z,2.53
2023-03-15T12:20:24.710Z,3.45
2023-03-15T12:22:56.795Z,1.52
2023-03-15T12:25:33.853Z,2.50
2023-03-15T12:28:08.937Z,1.95
2023-03-15T12:30:42.266Z,2.05
2023-03-15T12:33:16.936Z,3.50
2023-03-15T12:35:47.223Z,1.23
2023-03-15T12:38:19.598Z,4.13
2023-03-15T12:40:54.053Z,1.80
2023-03-15T12:43:39.056Z,3.90
2023-03-15T12:46:08.353Z,3.05
2023-03-15T12:48:36.570Z,2.65
2023-03-15T12:51:33.547Z,2.95
2023-03-15T12:54:04.034Z,1.70
2023-03-15T12:56:41.938Z,2.92
2023-03-15T12:59:30.063Z,2.80
2023-03-15T13:01:59.707Z,6.93
2023-03-15T13:04:29.308Z,2.30
2023-03-15T13:07:09.341Z,4.05
2023-03-15T13:09:58.309Z,2.22
2023-03-15T13:12:32.078Z,3.22
2023-03-15T13:15:06.356Z,3.65
2023-03-15T13:17:42.982Z,2.33
2023-03-15T13:20:25.800Z,4.05
2023-03-15T13:23:07.980Z,4.47
2023-03-15T13:25:41.471Z,2.50
2023-03-15T13:28:22.439Z,3.95
2023-03-15T13:30:53.616Z,4.05
2023-03-15T13:33:25.144Z,2.90
2023-03-15T13:36:00.991Z,3.28
2023-03-15T13:38:33.782Z,1.70
2023-03-15T13:41:04.626Z,2.72
2023-03-15T13:43:35.575Z,1.38
2023-03-15T13:46:04.021Z,3.35
2023-03-15T13:48:35.357Z,2.45
2023-03-15T13:51:08.685Z,2.63
2023-03-15T13:53:49.398Z,2.63
2023-03-15T13:56:20.928Z,1.33
2023-03-15T13:58:52.021Z,1.47
2023-03-15T14:01:23.281Z,2.35
2023-03-15T14:03:58.481Z,1.40
2023-03-15T14:06:28.262Z,1.70
2023-03-15T14:09:09.173Z,1.63
2023-03-15T14:11:40.653Z,1.45
2023-03-15T14:17:03.077Z,3.65
2023-03-15T14:19:33.728Z,2.30
2023-03-15T14:22:04.041Z,1.40
2023-03-15T14:24:37.100Z,2.35
2023-03-15T14:27:08.741Z,6.25
2023-03-15T14:32:08.694Z,2.13
2023-03-15T14:34:38.826Z,3.53
2023-03-15T14:37:26.242Z,4.13
2023-03-15T14:40:15.230Z,4.55
2023-03-15T14:42:44.570Z,4.57
2023-03-15T14:45:13.463Z,3.13
2023-03-15T14:47:56.314Z,2.00
2023-03-15T14:50:27.849Z,2.47
2023-03-15T14:52:58.394Z,2.55
2023-03-15T14:55:33.496Z,2.95
2023-03-15T14:58:02.400Z,2.63
2023-03-15T15:00:31.177Z,1.33
2023-03-15T15:03:00.032Z,4.82
2023-03-15T15:05:30.333Z,3.08
2023-03-15T15:08:03.648Z,3.47
2023-03-15T15:10:34.949Z,3.63
2023-03-15T15:13:06.828Z,2.47
2023-03-15T15:15:54.377Z,4.00
2023-03-15T15:18:25.195Z,3.13
2023-03-15T15:20:55.978Z,3.42
2023-03-15T15:23:27.312Z,4.43
2023-03-15T15:25:59.677Z,2.65
2023-03-15T15:28:37.538Z,3.88
2023-03-15T15:31:07.629Z,3.72
2023-03-15T15:33:36.425Z,3.83
2023-03-15T15:36:05.526Z,3.55
2023-03-15T15:38:39.063Z,1.80
2023-03-15T15:41:19.137Z,2.58
2023-03-15T15:43:47.582Z,2.35
2023-03-15T15:46:15.980Z,1.65
2023-03-15T15:48:44.591Z,2.13
2023-03-15T15:51:24.373Z,2.58
2023-03-15T15:53:53.439Z,2.38
2023-03-15T15:56:28.093Z,3.00
2023-03-15T15:58:57.507Z,2.30
2023-03-15T16:01:29.294Z,1.95
2023-03-15T16:03:57.571Z,3.78
2023-03-15T16:06:25.960Z,2.40
2023-03-15T16:08:55.395Z,3.10
2023-03-15T16:11:25.536Z,3.78
2023-03-15T16:13:54.811Z,4.53
2023-03-15T16:16:23.482Z,2.35
2023-03-15T16:18:51.779Z,2.13
2023-03-15T16:21:29.315Z,3.67
2023-03-15T16:24:02.087Z,2.78
2023-03-15T16:26:31.890Z,3.08
2023-03-15T16:29:00.193Z,3.65
2023-03-15T16:31:28.443Z,2.25
2023-03-15T16:33:56.744Z,3.03
2023-03-15T16:36:28.564Z,3.00
2023-03-15T16:38:56.906Z,4.07
2023-03-15T16:41:25.648Z,3.25
2023-03-15T16:43:55.198Z,2.60
2023-03-15T16:46:23.462Z,4.43
2023-03-15T16:48:51.762Z,3.85
2023-03-15T16:51:19.965Z,2.40
2023-03-15T16:53:48.197Z,2.67
2023-03-15T16:56:16.856Z,2.75
2023-03-15T16:58:45.843Z,3.13
2023-03-15T17:01:15.425Z,4.60
2023-03-15T17:03:43.767Z,4.13
2023-03-15T17:06:20.115Z,3.58
2023-03-15T17:08:48.960Z,3.60
2023-03-15T17:11:18.670Z,2.80
2023-03-15T17:13:47.116Z,4.32
2023-03-15T17:16:17.034Z,3.85
2023-03-15T17:18:47.666Z,4.30
2023-03-15T17:21:17.884Z,4.97
2023-03-15T17:23:47.016Z,3.88
2023-03-15T17:26:17.119Z,4.38
2023-03-15T17:28:46.209Z,6.05
2023-03-15T17:31:25.051Z,7.30
2023-03-15T17:33:54.069Z,138.57
2023-03-15T17:36:24.628Z,181.55
2023-03-15T17:38:56.440Z,242.25
2023-03-15T17:41:28.211Z,314.02
2023-03-15T17:43:56.468Z,161.10
2023-03-15T17:46:30.214Z,169.10
2023-03-15T17:48:59.150Z,105.05
2023-03-15T17:51:30.340Z,63.30
2023-03-15T17:53:59.592Z,155.27
2023-03-15T17:56:28.286Z,165.48
2023-03-15T17:58:56.579Z,202.27
2023-03-15T18:01:28.238Z,229.85
2023-03-15T18:03:57.082Z,277.48
2023-03-15T18:06:25.583Z,220.77
2023-03-15T18:08:53.820Z,161.50
2023-03-15T18:11:26.057Z,151.25
2023-03-15T18:13:55.077Z,147.13
2023-03-15T18:16:25.051Z,228.13
2023-03-15T18:18:56.255Z,242.63
2023-03-15T18:21:26.885Z,249.00
2023-03-15T18:23:55.486Z,196.80
2023-03-15T18:26:24.029Z,139.48
2023-03-15T18:28:52.216Z,114.45
2023-03-15T18:31:23.730Z,97.45
2023-03-15T18:33:54.688Z,84.45
2023-03-15T18:36:23.434Z,69.65
2023-03-15T18:38:51.695Z,43.60
2023-03-15T18:41:21.566Z,36.45
2023-03-15T18:43:51.491Z,32.35
2023-03-15T18:46:20.880Z,31.13
2023-03-15T18:48:49.957Z,22.45
2023-03-15T18:51:19.931Z,16.75
2023-03-15T18:53:48.262Z,16.27
2023-03-15T18:56:19.459Z,13.63
2023-03-15T18:58:48.465Z,12.35
2023-03-15T19:01:17.221Z,9.63
2023-03-15T19:03:45.680Z,8.07
2023-03-15T19:06:14.257Z,9.23
2023-03-15T19:08:44.513Z,8.80
2023-03-15T19:11:13.253Z,6.57
2023-03-15T19:13:41.440Z,6.53
2023-03-15T19:16:12.090Z,5.97
2023-03-15T19:18:42.719Z,8.07
2023-03-15T19:21:11.161Z,3.72
2023-03-15T19:23:39.397Z,4.43
2023-03-15T19:26:09.142Z,6.80
2023-03-15T19:28:37.824Z,5.05
2023-03-15T19:31:06.541Z,5.20
2023-03-15T19:33:35.111Z,5.40
2023-03-15T19:36:03.493Z,5.75
2023-03-15T19:38:31.906Z,4.38
2023-03-15T19:41:04.458Z,3.67
2023-03-15T19:43:34.337Z,5.70
2023-03-15T19:46:04.426Z,5.63
2023-03-15T19:48:32.709Z,2.78
2023-03-15T19:51:00.917Z,3.95
2023-03-15T19:53:30.468Z,4.03
2023-03-15T19:55:59.021Z,4.20
2023-03-15T19:58:39.566Z,3.15
2023-03-15T20:03:38.545Z,4.85
2023-03-15T20:06:08.757Z,3.30
2023-03-15T20:08:37.186Z,4.13
2023-03-15T20:11:06.731Z,5.65
2023-03-15T20:13:35.436Z,3.72
2023-03-15T20:16:04.561Z,3.60
2023-03-15T20:18:34.211Z,4.22
2023-03-15T20:21:02.532Z,4.43
2023-03-15T20:23:30.864Z,5.03
2023-03-15T20:26:07.419Z,3.38
2023-03-15T20:28:35.758Z,3.03
2023-03-15T20:31:08.294Z,3.13
2023-03-15T20:33:38.187Z,3.75
2023-03-15T20:36:07.371Z,3.05
2023-03-15T20:38:37.267Z,2.42
2023-03-15T20:41:06.629Z,2.78
2023-03-15T20:43:34.995Z,3.17
2023-03-15T20:46:04.581Z,3.25
2023-03-15T20:48:34.914Z,2.75
2023-03-15T20:51:05.451Z,2.53
2023-03-15T20:53:35.139Z,2.92
2023-03-15T20:56:04.806Z,3.95
2023-03-15T20:58:33.019Z,3.67
2023-03-15T21:01:06.272Z,4.32
2023-03-15T21:03:35.280Z,2.45
2023-03-15T21:06:06.762Z,3.33
2023-03-15T21:08:35.261Z,12.10
2023-03-15T21:11:04.556Z,18.13
2023-03-15T21:13:32.897Z,17.23
2023-03-15T21:16:04.083Z,14.07
2023-03-15T21:18:35.977Z,30.10
2023-03-15T21:21:08.022Z,13.18
2023-03-15T21:23:36.856Z,10.07
2023-03-15T21:26:07.929Z,9.38
2023-03-15T21:28:36.560Z,6.88
2023-03-15T21:31:05.621Z,6.72
2023-03-15T21:33:34.978Z,4.15
2023-03-15T21:36:05.164Z,5.60
2023-03-15T21:38:34.947Z,4.45
2023-03-15T21:41:07.797Z,5.28
2023-03-15T21:43:36.681Z,3.90
2023-03-15T21:46:07.225Z,4.68
2023-03-15T21:48:36.955Z,4.63
2023-03-15T21:51:07.689Z,4.28
2023-03-15T21:53:36.896Z,3.28
2023-03-15T21:56:05.320Z,4.25
2023-03-15T21:58:34.139Z,4.60
2023-03-15T22:01:04.557Z,2.72
2023-03-15T22:03:33.951Z,2.88
2023-03-15T22:06:02.566Z,4.13
2023-03-15T22:08:33.758Z,5.10
2023-03-15T22:11:02.230Z,5.38
2023-03-15T22:13:31.099Z,4.13
2023-03-15T22:15:59.601Z,4.75
2023-03-15T22:18:28.946Z,5.30
2023-03-15T22:20:57.805Z,4.78
2023-03-15T22:23:26.160Z,3.28
2023-03-15T22:25:57.122Z,3.40
2023-03-15T22:28:26.168Z,6.50
2023-03-15T22:30:54.756Z,4.47
2023-03-15T22:33:23.287Z,4.90
2023-03-15T22:35:56.627Z,4.22
2023-03-15T22:38:26.156Z,4.50
2023-03-15T22:41:03.510Z,5.78
2023-03-15T22:43:32.058Z,6.22
2023-03-15T22:46:00.421Z,4.57
2023-03-15T22:48:29.404Z,4.32
2023-03-15T22:50:59.930Z,4.65
2023-03-15T22:53:28.751Z,4.28
2023-03-15T22:55:57.412Z,5.53
2023-03-15T22:58:28.164Z,5.18
2023-03-15T23:00:56.550Z,7.03
2023-03-15T23:03:25.196Z,4.57
2023-03-15T23:05:53.747Z,5.47
2023-03-15T23:08:22.838Z,4.15
2023-03-15T23:10:51.787Z,6.28
2023-03-15T23:13:20.026Z,5.93
2023-03-15T23:15:49.847Z,6.40
2023-03-15T23:18:18.251Z,4.97
2023-03-15T23:20:46.572Z,6.00
2023-03-15T23:23:15.168Z,6.50
2023-03-15T23:25:43.520Z,6.07
2023-03-15T23:28:11.736Z,5.95
2023-03-15T23:30:41.315Z,6.03
2023-03-15T23:33:11.030Z,6.10
2023-03-15T23:35:39.306Z,5.00
2023-03-15T23:38:08.520Z,5.38
2023-03-15T23:40:36.858Z,5.72
2023-03-15T23:43:05.907Z,4.57
2023-03-15T23:45:34.650Z,4.82
2023-03-15T23:48:03.411Z,5.25
2023-03-15T23:50:33.067Z,5.28
2023-03-15T23:53:01.345Z,5.65
2023-03-15T23:55:29.806Z,6.53
2023-03-15T23:57:58.092Z,7.57
